createdAt,value
2018-05-23T02:49:33.323Z,0
2018-05-23T03:41:49.983Z,356
2018-05-23T03:42:10.596Z,364
2018-05-23T03:42:31.196Z,364
2018-05-23T03:42:51.865Z,368
2018-05-23T03:43:12.487Z,368
2018-05-23T03:43:32.957Z,368
2018-05-23T03:43:53.480Z,372
2018-05-23T03:44:13.972Z,376
2018-05-23T03:44:34.460Z,376
2018-05-23T03:44:54.888Z,384
2018-05-23T03:45:15.320Z,384
2018-05-23T03:45:35.848Z,384
2018-05-23T03:45:56.262Z,392
2018-05-23T03:46:16.877Z,396
2018-05-23T03:51:03.112Z,424
2018-05-23T03:51:23.716Z,424
2018-05-23T03:53:13.953Z,448
2018-05-23T03:54:35.317Z,488
2018-05-23T03:54:55.873Z,500
2018-05-23T03:56:06.567Z,544
2018-05-23T03:56:27.105Z,556
2018-05-23T03:56:47.580Z,568
2018-05-23T03:57:08.047Z,576
2018-05-23T03:57:28.662Z,588
2018-05-23T03:59:44.827Z,656
2018-05-23T04:00:05.451Z,668
2018-05-23T04:01:54.473Z,720
2018-05-23T04:03:02.812Z,756
2018-05-23T04:03:23.658Z,764
2018-05-23T04:05:43.563Z,796
2018-05-23T04:07:04.190Z,768
2018-05-23T04:07:26.362Z,764
2018-05-23T04:07:47.422Z,756
2018-05-23T04:08:08.319Z,752
2018-05-23T04:08:29.174Z,752
2018-05-23T04:08:50.380Z,740
2018-05-23T04:27:19.243Z,448
2018-05-23T04:27:39.924Z,452
2018-05-23T04:31:48.634Z,392
2018-05-23T04:32:57.327Z,408
2018-05-23T04:33:17.844Z,420
2018-05-23T04:34:31.051Z,468
2018-05-23T04:34:51.714Z,484
2018-05-23T04:35:12.183Z,508
2018-05-23T04:35:32.816Z,536
2018-05-23T04:35:53.308Z,568
2018-05-23T04:36:13.892Z,604
2018-05-23T04:37:06.231Z,688
2018-05-23T04:37:27.330Z,724
2018-05-23T04:37:48.002Z,752
2018-05-23T04:38:08.528Z,772
2018-05-23T04:38:29.597Z,800
2018-05-23T04:38:50.427Z,820
2018-05-23T04:39:12.033Z,844
2018-05-23T04:39:34.071Z,876
2018-05-23T04:39:55.140Z,904
2018-05-23T04:40:16.087Z,936
2018-05-23T04:40:36.872Z,956
2018-05-23T04:40:57.678Z,960
2018-05-23T04:41:18.162Z,964
2018-05-23T04:41:38.672Z,956
2018-05-23T04:41:59.379Z,960
2018-05-23T04:42:20.152Z,968
2018-05-23T04:42:40.720Z,980
2018-05-23T04:48:33.661Z,848
2018-05-23T04:54:23.981Z,804
2018-05-23T04:55:53.375Z,780
2018-05-23T04:56:42.958Z,764
2018-05-23T04:57:57.333Z,732
2018-05-23T04:58:59.148Z,752
2018-05-23T05:00:01.064Z,764
2018-05-23T05:00:21.456Z,748
2018-05-23T05:00:41.923Z,724
2018-05-23T05:01:21.943Z,684
2018-05-23T05:01:42.399Z,676
2018-05-23T05:02:02.843Z,672
2018-05-23T05:03:07.027Z,676
2018-05-23T05:04:08.888Z,692
2018-05-23T05:04:58.367Z,716
2018-05-23T05:05:18.831Z,712
2018-05-23T05:05:39.248Z,712
2018-05-23T05:06:31.384Z,740
2018-05-23T05:07:20.955Z,812
2018-05-23T05:08:10.493Z,932
2018-05-23T05:08:30.813Z,956
2018-05-23T05:08:51.313Z,984
2018-05-23T05:09:11.795Z,996
2018-05-23T05:09:32.342Z,992
2018-05-23T05:09:52.865Z,980
2018-05-23T05:10:13.424Z,956
2018-05-23T05:10:33.877Z,952
2018-05-23T05:10:54.335Z,976
2018-05-23T05:11:15.019Z,1028
2018-05-23T05:11:54.639Z,1184
2018-05-23T05:12:15.063Z,1248
2018-05-23T05:12:35.565Z,1308
2018-05-23T05:12:55.982Z,1340
2018-05-23T05:13:16.591Z,1352
2018-05-23T05:13:37.017Z,1344
2018-05-23T05:13:57.670Z,1336
2018-05-23T05:14:18.145Z,1352
2018-05-23T05:14:38.537Z,1368
2018-05-23T05:14:59.008Z,1368
2018-05-23T05:15:19.448Z,1348
2018-05-23T05:15:39.881Z,1292
2018-05-23T05:16:00.433Z,1244
2018-05-23T05:16:21.189Z,1212
2018-05-23T05:16:41.608Z,1184
2018-05-23T05:17:02.113Z,1164
2018-05-23T05:17:22.538Z,1156
2018-05-23T05:17:42.945Z,1156
2018-05-23T05:18:03.459Z,1160
2018-05-23T05:18:23.945Z,1168
2018-05-23T05:18:44.393Z,1176
2018-05-23T05:19:04.948Z,1192
2018-05-23T05:19:25.596Z,1212
2018-05-23T05:19:46.104Z,1232
2018-05-23T05:20:06.512Z,1236
2018-05-23T05:20:27.021Z,1236
2018-05-23T05:20:47.623Z,1236
2018-05-23T05:21:08.230Z,1240
2018-05-23T05:21:28.543Z,1244
2018-05-23T05:21:49.342Z,1228
2018-05-23T05:22:09.903Z,1216
2018-05-23T05:22:30.430Z,1196
2018-05-23T05:22:51.032Z,1168
2018-05-23T05:23:11.931Z,1144
2018-05-23T05:23:32.935Z,1124
2018-05-23T05:23:53.567Z,1112
2018-05-23T05:24:14.167Z,1096
2018-05-23T05:24:34.925Z,1088
2018-05-23T05:24:56.115Z,1076
2018-05-23T05:25:16.802Z,1072
2018-05-23T05:25:37.745Z,1076
2018-05-23T05:25:58.439Z,1096
2018-05-23T05:26:19.363Z,1128
2018-05-23T05:28:03.968Z,1184
2018-05-23T05:28:24.734Z,1168
2018-05-23T05:29:26.875Z,1080
2018-05-23T05:30:13.244Z,1060
2018-05-23T05:30:33.657Z,1052
2018-05-23T05:30:54.404Z,1048
2018-05-23T05:31:15.852Z,1044
2018-05-23T05:31:37.445Z,1040
2018-05-23T05:31:59.381Z,1040
2018-05-23T05:32:41.847Z,1056
2018-05-23T05:33:02.907Z,1068
2018-05-23T05:33:26.661Z,1084
2018-05-23T05:33:49.546Z,1108
2018-05-23T05:34:10.996Z,1128
2018-05-23T05:34:33.128Z,1136
2018-05-23T05:34:54.649Z,1144
2018-05-23T05:35:15.721Z,1152
2018-05-23T05:35:36.915Z,1160
2018-05-23T05:35:58.017Z,1172
2018-05-23T05:36:19.078Z,1176
2018-05-23T05:36:39.964Z,1176
2018-05-23T05:37:00.683Z,1168
2018-05-23T05:37:21.453Z,1168
2018-05-23T05:37:42.887Z,1172
2018-05-23T05:38:03.649Z,1176
2018-05-23T05:38:24.420Z,1188
2018-05-23T05:38:45.130Z,1200
2018-05-23T05:39:06.309Z,1212
2018-05-23T05:39:27.495Z,1220
2018-05-23T05:39:48.207Z,1228
2018-05-23T05:40:09.474Z,1244
2018-05-23T05:40:30.632Z,1256
2018-05-23T05:40:51.122Z,1264
2018-05-23T05:41:11.870Z,1264
2018-05-23T05:41:35.208Z,1264
2018-05-23T05:41:55.911Z,1264
2018-05-23T05:42:16.731Z,1260
2018-05-23T05:42:37.608Z,1252
2018-05-23T05:42:58.458Z,1252
2018-05-23T05:43:19.277Z,1256
2018-05-23T05:43:40.262Z,1256
2018-05-23T05:44:01.257Z,1260
2018-05-23T05:44:22.404Z,1264
2018-05-23T05:44:43.853Z,1276
2018-05-23T05:45:05.005Z,1296
2018-05-23T05:45:25.788Z,1316
2018-05-23T05:45:46.827Z,1340
2018-05-23T05:46:08.937Z,1364
2018-05-23T05:46:30.534Z,1380
2018-05-23T05:46:51.815Z,1388
2018-05-23T05:47:12.857Z,1396
2018-05-23T05:47:34.130Z,1372
2018-05-23T05:47:55.345Z,1328
2018-05-23T05:48:16.237Z,1296
2018-05-23T05:48:36.892Z,1252
2018-05-23T05:48:58.624Z,1220
2018-05-23T05:49:19.598Z,1220
2018-05-23T05:49:40.734Z,1224
2018-05-23T05:50:01.666Z,1224
2018-05-23T05:50:23.413Z,1228
2018-05-23T05:50:44.255Z,1232
2018-05-23T05:51:05.005Z,1228
2018-05-23T05:51:25.589Z,1224
2018-05-23T05:51:46.250Z,1220
2018-05-23T05:52:06.889Z,1224
2018-05-23T05:52:27.499Z,1224
2018-05-23T05:52:48.074Z,1232
2018-05-23T05:53:08.707Z,1240
2018-05-23T05:53:29.565Z,1252
2018-05-23T05:53:50.281Z,1268
2018-05-23T05:54:10.810Z,1288
2018-05-23T05:54:31.285Z,1304
2018-05-23T05:54:51.745Z,1316
2018-05-23T05:55:12.265Z,1320
2018-05-23T05:55:33.015Z,1328
2018-05-23T05:55:53.708Z,1332
2018-05-23T05:56:14.186Z,1340
2018-05-23T05:56:34.761Z,1348
2018-05-23T05:56:55.513Z,1356
2018-05-23T05:57:16.126Z,1364
2018-05-23T05:57:36.671Z,1368
2018-05-23T05:57:57.199Z,1328
2018-05-23T05:58:17.773Z,1288
2018-05-23T05:58:38.236Z,1268
2018-05-23T05:58:58.604Z,1252
2018-05-23T05:59:19.250Z,1240
2018-05-23T05:59:39.777Z,1240
2018-05-23T06:00:01.199Z,1236
2018-05-23T06:00:21.757Z,1232
2018-05-23T06:00:42.312Z,1232
2018-05-23T06:01:02.801Z,1232
2018-05-23T06:01:23.415Z,1228
2018-05-23T06:01:43.985Z,1232
2018-05-23T06:02:04.664Z,1236
2018-05-23T06:02:25.451Z,1236
2018-05-23T06:02:46.802Z,1236
2018-05-23T06:03:07.397Z,1232
2018-05-23T06:03:27.990Z,1232
2018-05-23T06:03:48.619Z,1232
2018-05-23T06:04:09.922Z,1232
2018-05-23T06:04:31.259Z,1232
2018-05-23T06:04:51.762Z,1228
2018-05-23T06:05:12.280Z,1224
2018-05-23T06:05:32.792Z,1232
2018-05-23T06:05:53.378Z,1240
2018-05-23T06:06:14.040Z,1240
2018-05-23T06:06:34.527Z,1244
2018-05-23T06:06:55.080Z,1244
2018-05-23T06:07:15.624Z,1252
2018-05-23T06:07:36.173Z,1256
2018-05-23T06:07:56.847Z,1256
2018-05-23T06:08:17.479Z,1260
2018-05-23T06:08:38.148Z,1260
2018-05-23T06:08:58.598Z,1264
2018-05-23T06:09:19.187Z,1268
2018-05-23T06:09:39.852Z,1268
2018-05-23T06:10:00.867Z,1272
2018-05-23T06:10:21.374Z,1272
2018-05-23T06:10:42.133Z,1276
2018-05-23T06:11:02.789Z,1276
2018-05-23T06:11:24.322Z,1276
2018-05-23T06:11:44.928Z,1276
2018-05-23T06:12:05.502Z,1280
2018-05-23T06:12:26.101Z,1284
2018-05-23T06:12:46.791Z,1280
2018-05-23T06:13:07.672Z,1280
2018-05-23T06:13:28.330Z,1284
2018-05-23T06:13:49.122Z,1280
2018-05-23T06:14:09.710Z,1284
2018-05-23T06:14:30.286Z,1280
2018-05-23T06:14:51.243Z,1280
2018-05-23T06:15:11.890Z,1276
2018-05-23T06:15:32.713Z,1276
2018-05-23T06:15:54.191Z,1280
2018-05-23T06:16:15.051Z,1272
2018-05-23T06:16:35.801Z,1276
2018-05-23T06:16:56.543Z,1272
2018-05-23T06:17:17.309Z,1268
2018-05-23T06:17:38.069Z,1268
2018-05-23T06:17:58.729Z,1268
2018-05-23T06:18:19.688Z,1268
2018-05-23T06:18:40.214Z,1264
2018-05-23T06:19:00.947Z,1264
2018-05-23T06:19:21.804Z,1260
2018-05-23T06:19:42.594Z,1260
2018-05-23T06:20:03.469Z,1256
2018-05-23T06:20:24.043Z,1256
2018-05-23T06:20:44.797Z,1256
2018-05-23T06:21:05.571Z,1252
2018-05-23T06:21:26.423Z,1252
2018-05-23T06:21:47.263Z,1256
2018-05-23T06:22:08.056Z,1248
2018-05-23T06:22:29.075Z,1252
2018-05-23T06:22:49.929Z,1252
2018-05-23T06:23:10.830Z,1252
2018-05-23T06:23:31.774Z,1256
2018-05-23T06:23:52.448Z,1252
2018-05-23T06:24:13.107Z,1252
2018-05-23T06:24:33.985Z,1252
2018-05-23T06:24:54.900Z,1256
2018-05-23T06:25:15.575Z,1256
2018-05-23T06:25:36.460Z,1252
2018-05-23T06:25:57.097Z,1252
2018-05-23T06:26:17.859Z,1252
2018-05-23T06:26:38.735Z,1256
2018-05-23T06:26:59.484Z,1252
2018-05-23T06:27:20.336Z,1252
2018-05-23T06:27:41.973Z,1252
2018-05-23T06:28:02.598Z,1252
2018-05-23T06:28:23.537Z,1248
2018-05-23T06:28:44.653Z,1244
2018-05-23T06:29:05.557Z,1240
2018-05-23T06:29:26.409Z,1240
2018-05-23T06:29:47.077Z,1236
2018-05-23T06:30:08.039Z,1232
2018-05-23T06:30:29.044Z,1232
2018-05-23T06:30:49.858Z,1232
2018-05-23T06:31:10.672Z,1228
2018-05-23T06:31:31.579Z,1224
2018-05-23T06:31:52.435Z,1224
2018-05-23T06:32:13.148Z,1224
2018-05-23T06:32:34.071Z,1224
2018-05-23T06:32:54.818Z,1224
2018-05-23T06:33:15.893Z,1224
2018-05-23T06:33:36.820Z,1220
2018-05-23T06:33:57.734Z,1224
2018-05-23T06:34:19.048Z,1224
2018-05-23T06:34:39.943Z,1224
2018-05-23T06:35:00.892Z,1228
2018-05-23T06:35:21.678Z,1228
2018-05-23T06:35:42.576Z,1228
2018-05-23T06:36:03.484Z,1228
2018-05-23T06:36:24.368Z,1228
2018-05-23T06:36:45.429Z,1228
2018-05-23T06:37:06.268Z,1228
2018-05-23T06:37:27.158Z,1232
2018-05-23T06:37:48.279Z,1232
2018-05-23T06:38:09.109Z,1228
2018-05-23T06:38:29.842Z,1232
2018-05-23T06:38:50.794Z,1232
2018-05-23T06:39:11.689Z,1232
2018-05-23T06:39:34.451Z,1232
2018-05-23T06:39:55.176Z,1228
2018-05-23T06:40:16.198Z,1224
2018-05-23T06:40:37.198Z,1224
2018-05-23T06:40:58.057Z,1224
2018-05-23T06:41:19.125Z,1224
2018-05-23T06:41:39.786Z,1224
2018-05-23T06:42:00.891Z,1220
2018-05-23T06:42:21.806Z,1220
2018-05-23T06:42:42.648Z,1220
2018-05-23T06:43:03.720Z,1224
2018-05-23T06:43:25.124Z,1224
2018-05-23T06:43:46.461Z,1224
2018-05-23T06:44:07.390Z,1228
2018-05-23T06:44:28.596Z,1228
2018-05-23T06:44:50.562Z,1224
2018-05-23T06:45:12.063Z,1224
2018-05-23T06:45:33.082Z,1220
2018-05-23T06:45:53.710Z,1220
2018-05-23T06:46:15.527Z,1224
2018-05-23T06:46:36.535Z,1224
2018-05-23T06:46:57.371Z,1224
2018-05-23T06:47:18.234Z,1220
2018-05-23T06:47:39.225Z,1220
2018-05-23T06:48:00.234Z,1220
2018-05-23T06:48:22.112Z,1220
2018-05-23T06:48:43.343Z,1220
2018-05-23T06:49:04.785Z,1224
2018-05-23T06:49:26.018Z,1216
2018-05-23T06:49:47.462Z,1216
2018-05-23T06:50:08.595Z,1220
2018-05-23T06:50:29.518Z,1216
2018-05-23T06:50:50.410Z,1220
2018-05-23T06:51:12.521Z,1216
2018-05-23T06:51:33.205Z,1220
2018-05-23T06:51:54.034Z,1220
2018-05-23T06:52:15.082Z,1224
2018-05-23T06:52:35.962Z,1232
2018-05-23T06:52:57.236Z,1236
2018-05-23T06:53:18.492Z,1240
2018-05-23T06:53:39.686Z,1240
2018-05-23T06:54:01.076Z,1236
2018-05-23T06:54:21.852Z,1232
2018-05-23T06:54:42.917Z,1224
2018-05-23T06:55:04.143Z,1228
2018-05-23T06:55:25.155Z,1232
2018-05-23T06:55:46.341Z,1232
2018-05-23T06:56:07.463Z,1232
2018-05-23T06:56:29.798Z,1232
2018-05-23T06:56:50.638Z,1228
2018-05-23T06:57:11.396Z,1236
2018-05-23T06:57:32.384Z,1236
2018-05-23T06:57:53.519Z,1248
2018-05-23T06:58:14.580Z,1252
2018-05-23T06:58:35.369Z,1248
2018-05-23T06:58:56.541Z,1248
2018-05-23T06:59:17.473Z,1248
2018-05-23T06:59:38.186Z,1256
2018-05-23T06:59:58.843Z,1260
2018-05-23T07:00:19.668Z,1264
2018-05-23T07:00:40.969Z,1268
2018-05-23T07:01:02.129Z,1264
2018-05-23T07:01:23.137Z,1264
2018-05-23T07:01:44.001Z,1272
2018-05-23T07:02:04.942Z,1268
2018-05-23T07:02:26.201Z,1268
2018-05-23T07:02:46.870Z,1268
2018-05-23T07:03:08.275Z,1272
2018-05-23T07:03:29.998Z,1276
2018-05-23T07:03:51.918Z,1276
2018-05-23T07:04:14.479Z,1276
2018-05-23T07:04:36.309Z,1284
2018-05-23T07:04:58.505Z,1284
2018-05-23T07:05:20.254Z,1288
2018-05-23T07:05:41.801Z,1288
2018-05-23T07:06:03.937Z,1288
2018-05-23T07:06:25.992Z,1292
2018-05-23T07:06:48.434Z,1288
2018-05-23T07:07:10.539Z,1288
2018-05-23T07:07:31.928Z,1288
2018-05-23T07:07:53.321Z,1288
2018-05-23T07:08:14.629Z,1292
2018-05-23T07:08:36.065Z,1292
2018-05-23T07:08:57.730Z,1300
2018-05-23T07:09:19.276Z,1300
2018-05-23T07:09:41.249Z,1300
2018-05-23T07:10:03.165Z,1308
2018-05-23T07:10:24.848Z,1304
2018-05-23T07:10:46.528Z,1308
2018-05-23T07:11:09.740Z,1304
2018-05-23T07:11:33.464Z,1308
2018-05-23T07:11:55.813Z,1308
2018-05-23T07:12:17.440Z,1312
2018-05-23T07:12:40.064Z,1312
2018-05-23T07:13:02.551Z,1308
2018-05-23T07:13:24.577Z,1308
2018-05-23T07:13:47.521Z,1312
2018-05-23T07:14:09.981Z,1316
2018-05-23T07:14:31.924Z,1324
2018-05-23T07:14:54.029Z,1328
2018-05-23T07:15:15.542Z,1328
2018-05-23T07:15:36.865Z,1332
2018-05-23T07:15:58.801Z,1344
2018-05-23T07:16:21.103Z,1352
2018-05-23T07:16:43.266Z,1352
2018-05-23T07:17:05.284Z,1352
2018-05-23T07:17:26.553Z,1356
2018-05-23T07:17:48.283Z,1356
2018-05-23T07:18:10.108Z,1360
2018-05-23T07:18:31.612Z,1368
2018-05-23T07:18:53.923Z,1364
2018-05-23T07:19:15.852Z,1364
2018-05-23T07:19:37.274Z,1364
2018-05-23T07:19:59.862Z,1372
2018-05-23T07:20:21.575Z,1372
2018-05-23T07:20:42.771Z,1368
2018-05-23T07:21:04.472Z,1376
2018-05-23T07:21:25.794Z,1376
2018-05-23T07:21:47.050Z,1376
2018-05-23T07:22:08.743Z,1372
2018-05-23T07:22:30.340Z,1372
2018-05-23T07:22:51.729Z,1368
2018-05-23T07:23:13.894Z,1368
2018-05-23T07:23:35.212Z,1372
2018-05-23T07:23:58.387Z,1372
2018-05-23T07:24:20.084Z,1376
2018-05-23T07:24:42.679Z,1376
2018-05-23T07:25:04.411Z,1376
2018-05-23T07:25:27.166Z,1380
2018-05-23T07:25:49.452Z,1380
2018-05-23T07:26:11.050Z,1380
2018-05-23T07:26:32.465Z,1384
2018-05-23T07:26:53.992Z,1384
2018-05-23T07:27:16.617Z,1384
2018-05-23T07:27:38.570Z,1388
2018-05-23T07:28:00.606Z,1388
2018-05-23T07:28:22.553Z,1388
2018-05-23T07:28:44.575Z,1388
2018-05-23T07:29:06.162Z,1376
2018-05-23T07:29:27.502Z,1376
2018-05-23T07:29:48.817Z,1376
2018-05-23T07:30:10.336Z,1376
2018-05-23T07:30:32.474Z,1372
2018-05-23T07:30:53.897Z,1372
2018-05-23T07:31:16.423Z,1380
2018-05-23T07:31:38.709Z,1384
2018-05-23T07:32:00.859Z,1388
2018-05-23T07:32:22.082Z,1392
2018-05-23T07:32:43.613Z,1400
2018-05-23T07:33:05.223Z,1408
2018-05-23T07:33:27.278Z,1420
2018-05-23T07:33:48.684Z,1424
2018-05-23T07:34:10.585Z,1436
2018-05-23T07:34:32.380Z,1444
2018-05-23T07:34:54.090Z,1444
2018-05-23T07:35:15.801Z,1456
2018-05-23T07:35:37.664Z,1456
2018-05-23T07:35:59.584Z,1452
2018-05-23T07:36:20.530Z,1456
2018-05-23T07:36:41.687Z,1460
2018-05-23T07:37:03.227Z,1464
2018-05-23T07:37:24.568Z,1464
2018-05-23T07:37:45.881Z,1460
2018-05-23T07:38:06.921Z,1456
2018-05-23T07:38:28.947Z,1456
2018-05-23T07:38:50.480Z,1452
2018-05-23T07:39:11.718Z,1448
2018-05-23T07:39:33.130Z,1444
2018-05-23T07:39:54.411Z,1444
2018-05-23T07:40:15.566Z,1448
2018-05-23T07:40:36.689Z,1448
2018-05-23T07:40:58.955Z,1448
2018-05-23T07:41:20.378Z,1448
2018-05-23T07:41:42.066Z,1448
2018-05-23T07:42:03.357Z,1448
2018-05-23T07:42:24.496Z,1444
2018-05-23T07:42:45.902Z,1440
2018-05-23T07:43:07.803Z,1436
2018-05-23T07:43:29.345Z,1428
2018-05-23T07:43:51.090Z,1424
2018-05-23T07:44:12.331Z,1416
2018-05-23T07:44:34.292Z,1412
2018-05-23T07:44:56.437Z,1408
2018-05-23T07:45:17.989Z,1400
2018-05-23T07:45:39.483Z,1396
2018-05-23T07:46:01.341Z,1392
2018-05-23T07:46:23.323Z,1392
2018-05-23T07:46:46.338Z,1396
2018-05-23T07:47:08.557Z,1388
2018-05-23T07:47:29.930Z,1388
2018-05-23T07:47:51.078Z,1388
2018-05-23T07:48:12.394Z,1380
2018-05-23T07:48:33.544Z,1376
2018-05-23T07:48:55.051Z,1368
2018-05-23T07:49:16.755Z,1364
2018-05-23T07:49:38.531Z,1360
2018-05-23T07:49:59.602Z,1360
2018-05-23T07:50:20.998Z,1360
2018-05-23T07:50:42.723Z,1368
2018-05-23T07:51:04.426Z,1368
2018-05-23T07:51:26.265Z,1368
2018-05-23T07:51:48.809Z,1364
2018-05-23T07:52:10.980Z,1368
2018-05-23T07:52:32.810Z,1372
2018-05-23T07:52:53.799Z,1376
2018-05-23T07:53:15.051Z,1372
2018-05-23T07:53:36.418Z,1372
2018-05-23T07:53:57.867Z,1372
2018-05-23T07:54:19.153Z,1368
2018-05-23T07:54:40.356Z,1364
2018-05-23T07:55:01.833Z,1368
2018-05-23T07:55:23.430Z,1368
2018-05-23T07:55:44.650Z,1372
2018-05-23T07:56:05.904Z,1376
2018-05-23T07:56:27.520Z,1384
2018-05-23T07:56:49.014Z,1384
2018-05-23T07:57:10.939Z,1392
2018-05-23T07:57:33.353Z,1396
2018-05-23T07:57:55.048Z,1404
2018-05-23T07:58:16.841Z,1412
2018-05-23T07:58:39.062Z,1416
2018-05-23T07:59:00.733Z,1420
2018-05-23T07:59:22.272Z,1420
2018-05-23T07:59:44.069Z,1420
2018-05-23T08:00:05.565Z,1428
2018-05-23T08:00:26.582Z,1428
2018-05-23T08:00:48.054Z,1432
2018-05-23T08:01:10.603Z,1436
2018-05-23T08:01:32.947Z,1436
2018-05-23T08:01:55.071Z,1440
2018-05-23T08:02:16.843Z,1444
2018-05-23T08:02:38.342Z,1448
2018-05-23T08:02:59.162Z,1452
2018-05-23T08:03:20.121Z,1448
2018-05-23T08:03:40.737Z,1444
2018-05-23T08:04:01.740Z,1432
2018-05-23T08:04:22.527Z,1436
2018-05-23T08:04:44.204Z,1436
2018-05-23T08:05:05.400Z,1428
2018-05-23T08:05:26.049Z,1428
2018-05-23T08:05:47.233Z,1424
2018-05-23T08:06:07.807Z,1416
2018-05-23T08:06:28.644Z,1416
2018-05-23T08:06:49.498Z,1408
2018-05-23T08:07:10.277Z,1400
2018-05-23T08:07:31.210Z,1384
2018-05-23T08:07:52.197Z,1384
2018-05-23T08:08:13.066Z,1388
2018-05-23T08:08:33.766Z,1392
2018-05-23T08:08:54.666Z,1380
2018-05-23T08:09:15.502Z,1376
2018-05-23T08:09:36.462Z,1372
2018-05-23T08:09:57.444Z,1368
2018-05-23T08:10:18.838Z,1364
2018-05-23T08:10:40.138Z,1364
2018-05-23T08:11:01.646Z,1364
2018-05-23T08:11:22.615Z,1364
2018-05-23T08:11:43.454Z,1364
2018-05-23T08:12:04.329Z,1364
2018-05-23T08:12:25.064Z,1360
2018-05-23T08:12:45.740Z,1348
2018-05-23T08:13:06.438Z,1348
2018-05-23T08:13:27.366Z,1348
2018-05-23T08:13:48.050Z,1348
2018-05-23T08:14:09.774Z,1360
2018-05-23T08:14:30.534Z,1360
2018-05-23T08:14:51.502Z,1360
2018-05-23T08:15:12.519Z,1360
2018-05-23T08:15:33.671Z,1356
2018-05-23T08:15:54.824Z,1356
2018-05-23T08:16:15.926Z,1352
2018-05-23T08:16:37.143Z,1348
2018-05-23T08:16:57.917Z,1352
2018-05-23T08:17:18.778Z,1352
2018-05-23T08:17:39.488Z,1352
2018-05-23T08:18:00.333Z,1352
2018-05-23T08:18:21.354Z,1348
2018-05-23T08:18:42.595Z,1356
2018-05-23T08:19:03.919Z,1360
2018-05-23T08:19:24.731Z,1372
2018-05-23T08:19:45.614Z,1380
2018-05-23T08:20:06.781Z,1388
2018-05-23T08:20:28.074Z,1396
2018-05-23T08:20:48.982Z,1400
2018-05-23T08:21:10.517Z,1408
2018-05-23T08:21:31.628Z,1424
2018-05-23T08:21:52.549Z,1448
2018-05-23T08:22:13.177Z,1472
2018-05-23T08:22:33.971Z,1484
2018-05-23T08:22:54.838Z,1496
2018-05-23T08:23:15.593Z,1500
2018-05-23T08:23:36.401Z,1504
2018-05-23T08:23:57.336Z,1512
2018-05-23T08:24:18.197Z,1532
2018-05-23T08:24:39.767Z,1548
2018-05-23T08:25:00.718Z,1560
2018-05-23T08:25:21.684Z,1552
2018-05-23T08:25:43.018Z,1552
2018-05-23T08:26:04.127Z,1476
2018-05-23T08:26:24.961Z,1452
2018-05-23T08:26:46.207Z,1440
2018-05-23T08:27:07.243Z,1472
2018-05-23T08:27:28.132Z,1400
2018-05-23T08:27:49.280Z,1368
2018-05-23T08:28:10.331Z,1388
2018-05-23T08:28:31.356Z,1412
2018-05-23T08:28:52.613Z,1404
2018-05-23T08:29:13.468Z,1416
2018-05-23T08:29:34.459Z,1420
2018-05-23T08:29:55.577Z,1424
2018-05-23T08:30:16.438Z,1440
2018-05-23T08:30:37.076Z,1464
2018-05-23T08:30:57.842Z,1496
2018-05-23T08:31:18.665Z,1500
2018-05-23T08:31:39.520Z,1500
2018-05-23T08:32:00.329Z,1516
2018-05-23T08:32:21.233Z,1536
2018-05-23T08:32:42.272Z,1564
2018-05-23T08:33:03.216Z,1600
2018-05-23T08:33:24.547Z,1648
2018-05-23T08:33:45.519Z,1692
2018-05-23T08:34:06.177Z,1724
2018-05-23T08:34:26.865Z,1748
2018-05-23T08:34:47.804Z,1764
2018-05-23T08:35:08.629Z,1776
2018-05-23T08:35:29.689Z,1800
2018-05-23T08:35:50.798Z,1816
2018-05-23T08:36:11.766Z,1816
2018-05-23T08:36:32.672Z,1808
2018-05-23T08:36:53.253Z,1780
2018-05-23T08:37:14.112Z,1752
